sensor_id;sensor_type;location;lat;lon;timestamp;temperature;humidity
5086;DHT22;4715;51.660;7.082;2023-07-09T00:02:07;25.50;94.70
5086;DHT22;4715;51.660;7.082;2023-07-09T00:04:33;25.40;94.90
5086;DHT22;4715;51.660;7.082;2023-07-09T00:07:01;25.40;95.10
5086;DHT22;4715;51.660;7.082;2023-07-09T00:09:24;25.30;95.20
5086;DHT22;4715;51.660;7.082;2023-07-09T00:11:49;25.20;95.30
5086;DHT22;4715;51.660;7.082;2023-07-09T00:14:13;25.20;95.50
5086;DHT22;4715;51.660;7.082;2023-07-09T00:16:35;25.20;95.70
5086;DHT22;4715;51.660;7.082;2023-07-09T00:18:57;25.20;95.80
5086;DHT22;4715;51.660;7.082;2023-07-09T00:21:21;25.20;96.00
5086;DHT22;4715;51.660;7.082;2023-07-09T00:23:50;25.20;96.10
5086;DHT22;4715;51.660;7.082;2023-07-09T00:26:15;25.10;96.20
5086;DHT22;4715;51.660;7.082;2023-07-09T00:28:40;25.10;96.70
5086;DHT22;4715;51.660;7.082;2023-07-09T00:31:03;25.00;96.50
5086;DHT22;4715;51.660;7.082;2023-07-09T00:33:25;25.00;96.60
5086;DHT22;4715;51.660;7.082;2023-07-09T00:35:53;24.90;96.80
5086;DHT22;4715;51.660;7.082;2023-07-09T00:38:19;24.90;96.90
5086;DHT22;4715;51.660;7.082;2023-07-09T00:40:48;24.90;97.10
5086;DHT22;4715;51.660;7.082;2023-07-09T00:43:18;24.90;97.20
5086;DHT22;4715;51.660;7.082;2023-07-09T00:45:42;24.90;97.40
5086;DHT22;4715;51.660;7.082;2023-07-09T00:48:11;24.90;97.40
5086;DHT22;4715;51.660;7.082;2023-07-09T00:50:38;24.90;97.50
5086;DHT22;4715;51.660;7.082;2023-07-09T00:53:11;24.90;97.70
5086;DHT22;4715;51.660;7.082;2023-07-09T00:55:42;24.90;97.80
5086;DHT22;4715;51.660;7.082;2023-07-09T00:58:13;24.80;97.90
5086;DHT22;4715;51.660;7.082;2023-07-09T01:00:45;24.80;98.00
5086;DHT22;4715;51.660;7.082;2023-07-09T01:03:08;24.80;98.20
5086;DHT22;4715;51.660;7.082;2023-07-09T01:05:31;24.80;98.30
5086;DHT22;4715;51.660;7.082;2023-07-09T01:07:54;24.80;98.50
5086;DHT22;4715;51.660;7.082;2023-07-09T01:10:19;24.80;98.60
5086;DHT22;4715;51.660;7.082;2023-07-09T01:12:43;24.80;98.80
5086;DHT22;4715;51.660;7.082;2023-07-09T01:15:07;24.70;98.90
5086;DHT22;4715;51.660;7.082;2023-07-09T01:17:33;24.70;99.10
5086;DHT22;4715;51.660;7.082;2023-07-09T01:19:58;24.70;99.30
5086;DHT22;4715;51.660;7.082;2023-07-09T01:22:26;24.60;99.40
5086;DHT22;4715;51.660;7.082;2023-07-09T01:24:56;24.60;99.50
5086;DHT22;4715;51.660;7.082;2023-07-09T01:27:25;24.60;99.70
5086;DHT22;4715;51.660;7.082;2023-07-09T01:29:48;24.60;99.90
5086;DHT22;4715;51.660;7.082;2023-07-09T01:32:10;24.50;99.90
5086;DHT22;4715;51.660;7.082;2023-07-09T01:34:34;24.50;99.90
5086;DHT22;4715;51.660;7.082;2023-07-09T01:36:56;24.40;99.90
5086;DHT22;4715;51.660;7.082;2023-07-09T01:39:19;24.30;99.90
5086;DHT22;4715;51.660;7.082;2023-07-09T01:41:41;24.30;99.90
5086;DHT22;4715;51.660;7.082;2023-07-09T01:44:03;24.30;99.90
5086;DHT22;4715;51.660;7.082;2023-07-09T01:46:25;24.20;99.90
5086;DHT22;4715;51.660;7.082;2023-07-09T01:48:47;24.20;99.90
5086;DHT22;4715;51.660;7.082;2023-07-09T01:51:11;24.20;99.90
5086;DHT22;4715;51.660;7.082;2023-07-09T01:53:33;24.20;99.90
5086;DHT22;4715;51.660;7.082;2023-07-09T01:55:57;24.10;99.90
5086;DHT22;4715;51.660;7.082;2023-07-09T01:58:19;24.10;99.90
5086;DHT22;4715;51.660;7.082;2023-07-09T02:00:45;24.10;99.90
5086;DHT22;4715;51.660;7.082;2023-07-09T02:03:07;24.10;99.90
5086;DHT22;4715;51.660;7.082;2023-07-09T02:05:31;24.10;99.90
5086;DHT22;4715;51.660;7.082;2023-07-09T02:07:53;24.10;99.90
5086;DHT22;4715;51.660;7.082;2023-07-09T02:10:16;24.00;99.90
5086;DHT22;4715;51.660;7.082;2023-07-09T02:12:40;24.10;99.90
5086;DHT22;4715;51.660;7.082;2023-07-09T02:15:02;24.00;99.90
5086;DHT22;4715;51.660;7.082;2023-07-09T02:17:25;24.00;99.90
5086;DHT22;4715;51.660;7.082;2023-07-09T02:19:47;24.00;99.90
5086;DHT22;4715;51.660;7.082;2023-07-09T02:22:10;24.00;99.90
5086;DHT22;4715;51.660;7.082;2023-07-09T02:24:36;24.00;99.90
5086;DHT22;4715;51.660;7.082;2023-07-09T02:27:00;23.90;99.90
5086;DHT22;4715;51.660;7.082;2023-07-09T02:29:27;23.90;99.90
5086;DHT22;4715;51.660;7.082;2023-07-09T02:31:50;23.90;99.90
5086;DHT22;4715;51.660;7.082;2023-07-09T02:34:14;23.80;99.90
5086;DHT22;4715;51.660;7.082;2023-07-09T02:36:37;23.80;99.90
5086;DHT22;4715;51.660;7.082;2023-07-09T02:39:03;23.80;99.90
5086;DHT22;4715;51.660;7.082;2023-07-09T02:41:25;23.80;99.90
5086;DHT22;4715;51.660;7.082;2023-07-09T02:43:47;23.80;99.90
5086;DHT22;4715;51.660;7.082;2023-07-09T02:46:10;23.70;99.90
5086;DHT22;4715;51.660;7.082;2023-07-09T02:48:32;23.70;99.90
5086;DHT22;4715;51.660;7.082;2023-07-09T02:50:53;23.70;99.90
5086;DHT22;4715;51.660;7.082;2023-07-09T02:53:15;23.60;99.90
5086;DHT22;4715;51.660;7.082;2023-07-09T02:55:37;23.60;99.90
5086;DHT22;4715;51.660;7.082;2023-07-09T02:57:59;23.60;99.90
5086;DHT22;4715;51.660;7.082;2023-07-09T03:00:21;23.60;99.90
5086;DHT22;4715;51.660;7.082;2023-07-09T03:02:44;23.60;99.90
5086;DHT22;4715;51.660;7.082;2023-07-09T03:05:07;23.50;99.90
5086;DHT22;4715;51.660;7.082;2023-07-09T03:07:30;23.50;99.90
5086;DHT22;4715;51.660;7.082;2023-07-09T03:09:52;23.50;99.90
5086;DHT22;4715;51.660;7.082;2023-07-09T03:12:14;23.50;99.90
5086;DHT22;4715;51.660;7.082;2023-07-09T03:14:35;23.50;99.90
5086;DHT22;4715;51.660;7.082;2023-07-09T03:16:59;23.40;99.90
5086;DHT22;4715;51.660;7.082;2023-07-09T03:19:22;23.40;99.90
5086;DHT22;4715;51.660;7.082;2023-07-09T03:21:45;23.40;99.90
5086;DHT22;4715;51.660;7.082;2023-07-09T03:24:08;23.40;99.90
5086;DHT22;4715;51.660;7.082;2023-07-09T03:26:29;23.30;99.90
5086;DHT22;4715;51.660;7.082;2023-07-09T03:28:51;23.30;99.90
5086;DHT22;4715;51.660;7.082;2023-07-09T03:31:13;23.30;99.90
5086;DHT22;4715;51.660;7.082;2023-07-09T03:33:36;23.20;99.90
5086;DHT22;4715;51.660;7.082;2023-07-09T03:35:59;23.20;99.90
5086;DHT22;4715;51.660;7.082;2023-07-09T03:38:21;23.20;99.90
5086;DHT22;4715;51.660;7.082;2023-07-09T03:40:45;23.10;99.90
5086;DHT22;4715;51.660;7.082;2023-07-09T03:43:08;23.10;99.90
5086;DHT22;4715;51.660;7.082;2023-07-09T03:45:31;23.10;99.90
5086;DHT22;4715;51.660;7.082;2023-07-09T03:47:53;23.10;99.90
5086;DHT22;4715;51.660;7.082;2023-07-09T03:50:15;23.10;99.90
5086;DHT22;4715;51.660;7.082;2023-07-09T03:52:38;23.10;99.90
5086;DHT22;4715;51.660;7.082;2023-07-09T03:55:00;23.10;99.90
5086;DHT22;4715;51.660;7.082;2023-07-09T03:57:24;23.10;99.90
5086;DHT22;4715;51.660;7.082;2023-07-09T03:59:46;23.10;99.90
5086;DHT22;4715;51.660;7.082;2023-07-09T04:02:08;23.10;99.90
5086;DHT22;4715;51.660;7.082;2023-07-09T04:04:30;23.00;99.90
5086;DHT22;4715;51.660;7.082;2023-07-09T04:06:52;23.00;99.90
5086;DHT22;4715;51.660;7.082;2023-07-09T04:09:15;23.00;99.90
5086;DHT22;4715;51.660;7.082;2023-07-09T04:11:37;23.10;99.90
5086;DHT22;4715;51.660;7.082;2023-07-09T04:13:59;23.00;99.90
5086;DHT22;4715;51.660;7.082;2023-07-09T04:16:20;23.00;99.90
5086;DHT22;4715;51.660;7.082;2023-07-09T04:18:42;23.00;99.90
5086;DHT22;4715;51.660;7.082;2023-07-09T04:21:04;23.10;99.90
5086;DHT22;4715;51.660;7.082;2023-07-09T04:23:26;23.00;99.90
5086;DHT22;4715;51.660;7.082;2023-07-09T04:25:49;23.00;99.90
5086;DHT22;4715;51.660;7.082;2023-07-09T04:28:11;23.00;99.90
5086;DHT22;4715;51.660;7.082;2023-07-09T04:30:34;23.00;99.90
5086;DHT22;4715;51.660;7.082;2023-07-09T04:32:55;23.00;99.90
5086;DHT22;4715;51.660;7.082;2023-07-09T04:35:17;23.10;99.90
5086;DHT22;4715;51.660;7.082;2023-07-09T04:37:41;23.10;99.90
5086;DHT22;4715;51.660;7.082;2023-07-09T04:40:05;23.10;99.90
5086;DHT22;4715;51.660;7.082;2023-07-09T04:42:30;23.20;99.90
5086;DHT22;4715;51.660;7.082;2023-07-09T04:44:52;23.20;99.90
5086;DHT22;4715;51.660;7.082;2023-07-09T04:47:14;23.30;99.90
5086;DHT22;4715;51.660;7.082;2023-07-09T04:49:36;23.30;99.90
5086;DHT22;4715;51.660;7.082;2023-07-09T04:51:58;23.30;99.90
5086;DHT22;4715;51.660;7.082;2023-07-09T04:54:20;23.40;99.90
5086;DHT22;4715;51.660;7.082;2023-07-09T04:56:43;23.40;99.90
5086;DHT22;4715;51.660;7.082;2023-07-09T04:59:06;23.40;99.90
5086;DHT22;4715;51.660;7.082;2023-07-09T05:01:28;23.50;99.90
5086;DHT22;4715;51.660;7.082;2023-07-09T05:03:50;23.50;99.90
5086;DHT22;4715;51.660;7.082;2023-07-09T05:06:13;23.60;99.90
5086;DHT22;4715;51.660;7.082;2023-07-09T05:08:35;23.60;99.90
5086;DHT22;4715;51.660;7.082;2023-07-09T05:10:57;23.60;99.90
5086;DHT22;4715;51.660;7.082;2023-07-09T05:13:19;23.70;99.90
5086;DHT22;4715;51.660;7.082;2023-07-09T05:15:44;23.80;99.90
5086;DHT22;4715;51.660;7.082;2023-07-09T05:18:07;23.80;99.90
5086;DHT22;4715;51.660;7.082;2023-07-09T05:20:29;23.80;99.90
5086;DHT22;4715;51.660;7.082;2023-07-09T05:22:51;23.90;99.90
5086;DHT22;4715;51.660;7.082;2023-07-09T05:25:13;23.90;99.90
5086;DHT22;4715;51.660;7.082;2023-07-09T05:27:35;23.90;99.90
5086;DHT22;4715;51.660;7.082;2023-07-09T05:29:56;24.00;99.90
5086;DHT22;4715;51.660;7.082;2023-07-09T05:32:20;24.10;99.90
5086;DHT22;4715;51.660;7.082;2023-07-09T05:34:42;24.20;99.90
5086;DHT22;4715;51.660;7.082;2023-07-09T05:37:04;24.20;99.90
5086;DHT22;4715;51.660;7.082;2023-07-09T05:39:25;24.30;99.90
5086;DHT22;4715;51.660;7.082;2023-07-09T05:41:47;24.40;99.90
5086;DHT22;4715;51.660;7.082;2023-07-09T05:44:09;24.40;99.90
5086;DHT22;4715;51.660;7.082;2023-07-09T05:46:34;24.50;99.90
5086;DHT22;4715;51.660;7.082;2023-07-09T05:48:58;24.60;99.90
5086;DHT22;4715;51.660;7.082;2023-07-09T05:51:20;24.60;99.90
5086;DHT22;4715;51.660;7.082;2023-07-09T05:53:44;24.70;99.90
5086;DHT22;4715;51.660;7.082;2023-07-09T05:56:06;24.70;99.90
5086;DHT22;4715;51.660;7.082;2023-07-09T05:58:28;24.80;99.90
5086;DHT22;4715;51.660;7.082;2023-07-09T06:00:51;24.80;99.90
5086;DHT22;4715;51.660;7.082;2023-07-09T06:03:14;24.90;99.90
5086;DHT22;4715;51.660;7.082;2023-07-09T06:05:37;25.00;99.90
5086;DHT22;4715;51.660;7.082;2023-07-09T06:07:59;25.10;99.90
5086;DHT22;4715;51.660;7.082;2023-07-09T06:10:21;25.20;99.90
5086;DHT22;4715;51.660;7.082;2023-07-09T06:12:43;25.20;99.90
5086;DHT22;4715;51.660;7.082;2023-07-09T06:15:07;25.30;99.90
5086;DHT22;4715;51.660;7.082;2023-07-09T06:17:29;25.40;99.90
5086;DHT22;4715;51.660;7.082;2023-07-09T06:19:51;25.40;99.90
5086;DHT22;4715;51.660;7.082;2023-07-09T06:22:14;25.50;99.90
5086;DHT22;4715;51.660;7.082;2023-07-09T06:24:36;25.60;99.90
5086;DHT22;4715;51.660;7.082;2023-07-09T06:26:58;25.60;99.90
5086;DHT22;4715;51.660;7.082;2023-07-09T06:29:20;25.70;99.90
5086;DHT22;4715;51.660;7.082;2023-07-09T06:31:43;25.80;99.90
5086;DHT22;4715;51.660;7.082;2023-07-09T06:34:05;25.90;99.90
5086;DHT22;4715;51.660;7.082;2023-07-09T06:36:28;25.90;99.90
5086;DHT22;4715;51.660;7.082;2023-07-09T06:38:51;26.00;99.90
5086;DHT22;4715;51.660;7.082;2023-07-09T06:41:14;26.00;99.90
5086;DHT22;4715;51.660;7.082;2023-07-09T06:43:36;26.10;99.90
5086;DHT22;4715;51.660;7.082;2023-07-09T06:46:00;26.20;99.90
5086;DHT22;4715;51.660;7.082;2023-07-09T06:48:22;26.20;99.90
5086;DHT22;4715;51.660;7.082;2023-07-09T06:50:44;26.30;99.90
5086;DHT22;4715;51.660;7.082;2023-07-09T06:53:06;26.40;99.90
5086;DHT22;4715;51.660;7.082;2023-07-09T06:55:29;26.40;99.90
5086;DHT22;4715;51.660;7.082;2023-07-09T06:57:51;26.50;99.90
5086;DHT22;4715;51.660;7.082;2023-07-09T07:00:14;26.60;99.90
5086;DHT22;4715;51.660;7.082;2023-07-09T07:02:37;26.70;99.90
5086;DHT22;4715;51.660;7.082;2023-07-09T07:04:58;26.80;99.90
5086;DHT22;4715;51.660;7.082;2023-07-09T07:07:20;26.90;99.90
5086;DHT22;4715;51.660;7.082;2023-07-09T07:09:42;27.00;99.90
5086;DHT22;4715;51.660;7.082;2023-07-09T07:12:42;27.10;99.90
5086;DHT22;4715;51.660;7.082;2023-07-09T07:15:05;27.10;99.90
5086;DHT22;4715;51.660;7.082;2023-07-09T07:17:28;27.20;99.90
5086;DHT22;4715;51.660;7.082;2023-07-09T07:19:50;27.30;99.90
5086;DHT22;4715;51.660;7.082;2023-07-09T07:22:12;27.50;99.90
5086;DHT22;4715;51.660;7.082;2023-07-09T07:24:34;27.60;99.90
5086;DHT22;4715;51.660;7.082;2023-07-09T07:26:56;27.70;99.90
5086;DHT22;4715;51.660;7.082;2023-07-09T07:29:19;27.80;99.90
5086;DHT22;4715;51.660;7.082;2023-07-09T07:31:42;27.90;99.90
5086;DHT22;4715;51.660;7.082;2023-07-09T07:34:04;28.00;99.90
5086;DHT22;4715;51.660;7.082;2023-07-09T07:36:26;28.10;99.90
5086;DHT22;4715;51.660;7.082;2023-07-09T07:38:47;28.20;99.90
5086;DHT22;4715;51.660;7.082;2023-07-09T07:41:09;28.30;99.90
5086;DHT22;4715;51.660;7.082;2023-07-09T07:43:31;28.40;99.90
5086;DHT22;4715;51.660;7.082;2023-07-09T07:45:54;28.50;99.90
5086;DHT22;4715;51.660;7.082;2023-07-09T07:48:16;28.50;99.90
5086;DHT22;4715;51.660;7.082;2023-07-09T07:50:38;28.70;99.90
5086;DHT22;4715;51.660;7.082;2023-07-09T07:53:01;28.80;99.90
5086;DHT22;4715;51.660;7.082;2023-07-09T07:55:23;28.90;99.90
5086;DHT22;4715;51.660;7.082;2023-07-09T07:57:45;29.10;99.90
5086;DHT22;4715;51.660;7.082;2023-07-09T08:00:08;29.20;99.90
5086;DHT22;4715;51.660;7.082;2023-07-09T08:02:31;29.30;99.90
5086;DHT22;4715;51.660;7.082;2023-07-09T08:04:53;29.40;99.90
5086;DHT22;4715;51.660;7.082;2023-07-09T08:07:16;29.50;99.90
5086;DHT22;4715;51.660;7.082;2023-07-09T08:09:38;29.60;99.90
5086;DHT22;4715;51.660;7.082;2023-07-09T08:12:01;29.60;99.90
5086;DHT22;4715;51.660;7.082;2023-07-09T08:14:29;29.70;99.90
5086;DHT22;4715;51.660;7.082;2023-07-09T08:16:51;29.80;99.90
5086;DHT22;4715;51.660;7.082;2023-07-09T08:19:18;29.90;99.90
5086;DHT22;4715;51.660;7.082;2023-07-09T08:21:40;30.00;99.90
5086;DHT22;4715;51.660;7.082;2023-07-09T08:24:04;30.20;99.90
5086;DHT22;4715;51.660;7.082;2023-07-09T08:26:26;30.30;99.90
5086;DHT22;4715;51.660;7.082;2023-07-09T08:28:48;30.40;99.90
5086;DHT22;4715;51.660;7.082;2023-07-09T08:31:11;30.50;99.90
5086;DHT22;4715;51.660;7.082;2023-07-09T08:33:33;30.60;99.90
5086;DHT22;4715;51.660;7.082;2023-07-09T08:35:56;30.60;99.90
5086;DHT22;4715;51.660;7.082;2023-07-09T08:38:19;30.70;99.90
5086;DHT22;4715;51.660;7.082;2023-07-09T08:40:42;30.90;99.90
5086;DHT22;4715;51.660;7.082;2023-07-09T08:43:20;30.90;99.90
5086;DHT22;4715;51.660;7.082;2023-07-09T08:45:50;31.00;99.90
5086;DHT22;4715;51.660;7.082;2023-07-09T08:48:21;31.10;99.90
5086;DHT22;4715;51.660;7.082;2023-07-09T08:50:51;31.20;99.90
5086;DHT22;4715;51.660;7.082;2023-07-09T08:53:20;31.30;99.90
5086;DHT22;4715;51.660;7.082;2023-07-09T08:55:43;31.40;99.90
5086;DHT22;4715;51.660;7.082;2023-07-09T08:58:11;31.40;99.90
5086;DHT22;4715;51.660;7.082;2023-07-09T09:00:44;31.50;99.90
5086;DHT22;4715;51.660;7.082;2023-07-09T09:03:10;31.60;99.90
5086;DHT22;4715;51.660;7.082;2023-07-09T09:05:38;31.70;99.90
5086;DHT22;4715;51.660;7.082;2023-07-09T09:08:04;31.80;99.90
5086;DHT22;4715;51.660;7.082;2023-07-09T09:10:33;31.90;99.90
5086;DHT22;4715;51.660;7.082;2023-07-09T09:13:11;32.00;99.90
5086;DHT22;4715;51.660;7.082;2023-07-09T09:15:41;32.10;99.90
5086;DHT22;4715;51.660;7.082;2023-07-09T09:18:24;32.20;99.90
5086;DHT22;4715;51.660;7.082;2023-07-09T09:20:51;32.40;99.90
5086;DHT22;4715;51.660;7.082;2023-07-09T09:23:15;32.50;99.90
5086;DHT22;4715;51.660;7.082;2023-07-09T09:25:41;32.60;99.90
5086;DHT22;4715;51.660;7.082;2023-07-09T09:28:08;32.70;99.90
5086;DHT22;4715;51.660;7.082;2023-07-09T09:30:34;32.80;99.90
5086;DHT22;4715;51.660;7.082;2023-07-09T09:32:57;32.80;99.90
5086;DHT22;4715;51.660;7.082;2023-07-09T09:35:24;32.80;99.90
5086;DHT22;4715;51.660;7.082;2023-07-09T09:37:51;32.80;99.90
5086;DHT22;4715;51.660;7.082;2023-07-09T09:40:13;32.90;99.90
5086;DHT22;4715;51.660;7.082;2023-07-09T09:42:36;33.00;99.90
5086;DHT22;4715;51.660;7.082;2023-07-09T09:44:58;33.00;99.90
5086;DHT22;4715;51.660;7.082;2023-07-09T09:47:21;33.10;99.70
5086;DHT22;4715;51.660;7.082;2023-07-09T09:49:47;33.10;99.50
5086;DHT22;4715;51.660;7.082;2023-07-09T09:52:13;33.30;99.40
5086;DHT22;4715;51.660;7.082;2023-07-09T09:54:51;33.30;99.10
5086;DHT22;4715;51.660;7.082;2023-07-09T09:57:16;33.40;99.00
5086;DHT22;4715;51.660;7.082;2023-07-09T09:59:40;33.50;98.90
5086;DHT22;4715;51.660;7.082;2023-07-09T10:02:15;33.60;98.70
5086;DHT22;4715;51.660;7.082;2023-07-09T10:04:38;33.70;98.50
5086;DHT22;4715;51.660;7.082;2023-07-09T10:07:03;33.80;98.40
5086;DHT22;4715;51.660;7.082;2023-07-09T10:09:38;33.90;98.30
5086;DHT22;4715;51.660;7.082;2023-07-09T10:12:08;34.00;98.10
5086;DHT22;4715;51.660;7.082;2023-07-09T10:14:45;34.10;97.90
5086;DHT22;4715;51.660;7.082;2023-07-09T10:17:17;34.20;97.60
5086;DHT22;4715;51.660;7.082;2023-07-09T10:19:47;34.30;97.40
5086;DHT22;4715;51.660;7.082;2023-07-09T10:22:15;34.40;96.30
5086;DHT22;4715;51.660;7.082;2023-07-09T10:24:48;34.30;95.20
5086;DHT22;4715;51.660;7.082;2023-07-09T10:27:16;34.20;94.80
5086;DHT22;4715;51.660;7.082;2023-07-09T10:29:55;34.20;94.90
5086;DHT22;4715;51.660;7.082;2023-07-09T10:32:28;34.20;95.00
5086;DHT22;4715;51.660;7.082;2023-07-09T10:34:57;34.30;95.10
5086;DHT22;4715;51.660;7.082;2023-07-09T10:37:38;34.40;95.00
5086;DHT22;4715;51.660;7.082;2023-07-09T10:40:04;34.60;94.70
5086;DHT22;4715;51.660;7.082;2023-07-09T10:42:32;34.80;94.70
5086;DHT22;4715;51.660;7.082;2023-07-09T10:45:01;34.90;94.60
5086;DHT22;4715;51.660;7.082;2023-07-09T10:47:28;35.10;94.40
5086;DHT22;4715;51.660;7.082;2023-07-09T10:49:52;35.20;94.20
5086;DHT22;4715;51.660;7.082;2023-07-09T10:52:21;35.30;94.00
5086;DHT22;4715;51.660;7.082;2023-07-09T10:54:55;35.30;93.60
5086;DHT22;4715;51.660;7.082;2023-07-09T10:57:23;35.40;93.50
5086;DHT22;4715;51.660;7.082;2023-07-09T10:59:48;35.40;92.30
5086;DHT22;4715;51.660;7.082;2023-07-09T11:02:20;35.20;91.70
5086;DHT22;4715;51.660;7.082;2023-07-09T11:04:46;35.20;91.80
5086;DHT22;4715;51.660;7.082;2023-07-09T11:07:16;35.20;91.30
5086;DHT22;4715;51.660;7.082;2023-07-09T11:09:42;35.10;91.10
5086;DHT22;4715;51.660;7.082;2023-07-09T11:12:11;35.20;91.40
5086;DHT22;4715;51.660;7.082;2023-07-09T11:14:39;35.30;91.40
5086;DHT22;4715;51.660;7.082;2023-07-09T11:17:04;35.50;91.30
5086;DHT22;4715;51.660;7.082;2023-07-09T11:19:29;35.60;90.90
5086;DHT22;4715;51.660;7.082;2023-07-09T11:21:59;35.60;90.70
5086;DHT22;4715;51.660;7.082;2023-07-09T11:24:31;35.70;90.70
5086;DHT22;4715;51.660;7.082;2023-07-09T11:26:54;35.90;90.60
5086;DHT22;4715;51.660;7.082;2023-07-09T11:29:17;36.00;90.50
5086;DHT22;4715;51.660;7.082;2023-07-09T11:31:42;36.10;90.40
5086;DHT22;4715;51.660;7.082;2023-07-09T11:34:09;36.20;90.30
5086;DHT22;4715;51.660;7.082;2023-07-09T11:36:33;36.20;89.90
5086;DHT22;4715;51.660;7.082;2023-07-09T11:38:56;36.20;89.90
5086;DHT22;4715;51.660;7.082;2023-07-09T11:41:37;36.20;89.90
5086;DHT22;4715;51.660;7.082;2023-07-09T11:44:10;36.30;89.80
5086;DHT22;4715;51.660;7.082;2023-07-09T11:46:36;36.40;89.40
5086;DHT22;4715;51.660;7.082;2023-07-09T11:48:59;36.50;89.20
5086;DHT22;4715;51.660;7.082;2023-07-09T11:51:29;36.60;88.90
5086;DHT22;4715;51.660;7.082;2023-07-09T11:53:55;36.70;88.80
5086;DHT22;4715;51.660;7.082;2023-07-09T11:56:18;36.80;88.60
5086;DHT22;4715;51.660;7.082;2023-07-09T11:58:48;36.90;88.50
5086;DHT22;4715;51.660;7.082;2023-07-09T12:01:17;36.90;88.10
5086;DHT22;4715;51.660;7.082;2023-07-09T12:03:44;36.90;87.80
5086;DHT22;4715;51.660;7.082;2023-07-09T12:06:16;36.90;87.70
5086;DHT22;4715;51.660;7.082;2023-07-09T12:08:40;36.80;87.20
5086;DHT22;4715;51.660;7.082;2023-07-09T12:11:05;36.70;87.10
5086;DHT22;4715;51.660;7.082;2023-07-09T12:13:27;36.70;86.90
5086;DHT22;4715;51.660;7.082;2023-07-09T12:15:50;36.70;86.80
5086;DHT22;4715;51.660;7.082;2023-07-09T12:18:14;36.70;86.80
5086;DHT22;4715;51.660;7.082;2023-07-09T12:20:36;36.70;86.70
5086;DHT22;4715;51.660;7.082;2023-07-09T12:22:58;36.80;86.70
5086;DHT22;4715;51.660;7.082;2023-07-09T12:25:23;36.90;86.30
5086;DHT22;4715;51.660;7.082;2023-07-09T12:27:48;37.00;86.10
5086;DHT22;4715;51.660;7.082;2023-07-09T12:30:12;37.00;82.60
5086;DHT22;4715;51.660;7.082;2023-07-09T12:32:43;36.90;82.50
5086;DHT22;4715;51.660;7.082;2023-07-09T12:35:11;36.80;82.30
5086;DHT22;4715;51.660;7.082;2023-07-09T12:37:33;36.80;82.10
5086;DHT22;4715;51.660;7.082;2023-07-09T12:39:55;36.80;81.30
5086;DHT22;4715;51.660;7.082;2023-07-09T12:42:27;36.70;80.30
5086;DHT22;4715;51.660;7.082;2023-07-09T12:44:52;36.60;76.50
5086;DHT22;4715;51.660;7.082;2023-07-09T12:47:15;36.30;76.40
5086;DHT22;4715;51.660;7.082;2023-07-09T12:49:40;36.20;76.30
5086;DHT22;4715;51.660;7.082;2023-07-09T12:52:08;36.10;76.40
5086;DHT22;4715;51.660;7.082;2023-07-09T12:54:31;36.00;76.50
5086;DHT22;4715;51.660;7.082;2023-07-09T12:56:53;35.90;76.20
5086;DHT22;4715;51.660;7.082;2023-07-09T12:59:18;35.90;76.30
5086;DHT22;4715;51.660;7.082;2023-07-09T13:01:41;35.90;76.10
5086;DHT22;4715;51.660;7.082;2023-07-09T13:04:04;35.90;75.60
5086;DHT22;4715;51.660;7.082;2023-07-09T13:06:29;35.90;75.50
5086;DHT22;4715;51.660;7.082;2023-07-09T13:08:56;35.90;74.60
5086;DHT22;4715;51.660;7.082;2023-07-09T13:11:19;35.90;74.60
5086;DHT22;4715;51.660;7.082;2023-07-09T13:13:54;35.90;75.00
5086;DHT22;4715;51.660;7.082;2023-07-09T13:16:21;35.90;75.10
5086;DHT22;4715;51.660;7.082;2023-07-09T13:18:46;35.70;75.00
5086;DHT22;4715;51.660;7.082;2023-07-09T13:21:15;35.60;75.30
5086;DHT22;4715;51.660;7.082;2023-07-09T13:23:37;35.50;75.00
5086;DHT22;4715;51.660;7.082;2023-07-09T13:26:00;35.50;75.20
5086;DHT22;4715;51.660;7.082;2023-07-09T13:28:24;35.40;75.20
5086;DHT22;4715;51.660;7.082;2023-07-09T13:30:48;35.40;75.50
5086;DHT22;4715;51.660;7.082;2023-07-09T13:33:12;35.50;75.80
5086;DHT22;4715;51.660;7.082;2023-07-09T13:35:36;35.50;75.50
5086;DHT22;4715;51.660;7.082;2023-07-09T13:37:58;35.60;75.30
5086;DHT22;4715;51.660;7.082;2023-07-09T13:40:20;35.60;75.30
5086;DHT22;4715;51.660;7.082;2023-07-09T13:42:43;35.60;75.60
5086;DHT22;4715;51.660;7.082;2023-07-09T13:45:20;35.60;75.70
5086;DHT22;4715;51.660;7.082;2023-07-09T13:47:43;35.60;75.60
5086;DHT22;4715;51.660;7.082;2023-07-09T13:50:06;35.50;74.80
5086;DHT22;4715;51.660;7.082;2023-07-09T13:52:30;35.40;74.90
5086;DHT22;4715;51.660;7.082;2023-07-09T13:54:52;35.40;74.90
5086;DHT22;4715;51.660;7.082;2023-07-09T13:57:15;35.30;74.80
5086;DHT22;4715;51.660;7.082;2023-07-09T13:59:40;35.20;74.80
5086;DHT22;4715;51.660;7.082;2023-07-09T14:02:07;35.10;74.70
5086;DHT22;4715;51.660;7.082;2023-07-09T14:04:35;35.10;74.80
5086;DHT22;4715;51.660;7.082;2023-07-09T14:06:57;35.10;74.80
5086;DHT22;4715;51.660;7.082;2023-07-09T14:09:20;35.10;74.70
5086;DHT22;4715;51.660;7.082;2023-07-09T14:11:46;35.00;74.70
5086;DHT22;4715;51.660;7.082;2023-07-09T14:14:17;35.00;74.80
5086;DHT22;4715;51.660;7.082;2023-07-09T14:16:39;34.90;74.70
5086;DHT22;4715;51.660;7.082;2023-07-09T14:19:01;34.80;75.00
5086;DHT22;4715;51.660;7.082;2023-07-09T14:21:25;34.70;75.10
5086;DHT22;4715;51.660;7.082;2023-07-09T14:23:48;34.70;76.10
5086;DHT22;4715;51.660;7.082;2023-07-09T14:26:12;34.60;75.50
5086;DHT22;4715;51.660;7.082;2023-07-09T14:28:36;34.50;75.90
5086;DHT22;4715;51.660;7.082;2023-07-09T14:30:59;34.40;76.20
5086;DHT22;4715;51.660;7.082;2023-07-09T14:33:22;34.40;76.50
5086;DHT22;4715;51.660;7.082;2023-07-09T14:35:46;34.30;76.90
5086;DHT22;4715;51.660;7.082;2023-07-09T14:38:17;34.20;78.00
5086;DHT22;4715;51.660;7.082;2023-07-09T14:40:41;34.10;77.60
5086;DHT22;4715;51.660;7.082;2023-07-09T14:43:09;34.00;78.00
5086;DHT22;4715;51.660;7.082;2023-07-09T14:45:32;33.90;78.50
5086;DHT22;4715;51.660;7.082;2023-07-09T14:47:55;33.80;79.30
5086;DHT22;4715;51.660;7.082;2023-07-09T14:50:17;33.70;83.20
5086;DHT22;4715;51.660;7.082;2023-07-09T14:52:41;33.40;86.10
5086;DHT22;4715;51.660;7.082;2023-07-09T14:55:07;32.60;92.80
5086;DHT22;4715;51.660;7.082;2023-07-09T14:57:30;30.70;97.80
5086;DHT22;4715;51.660;7.082;2023-07-09T14:59:56;28.50;99.90
5086;DHT22;4715;51.660;7.082;2023-07-09T15:02:32;27.00;99.90
5086;DHT22;4715;51.660;7.082;2023-07-09T15:04:55;26.10;99.90
5086;DHT22;4715;51.660;7.082;2023-07-09T15:07:17;25.50;99.90
5086;DHT22;4715;51.660;7.082;2023-07-09T15:09:39;25.40;99.90
5086;DHT22;4715;51.660;7.082;2023-07-09T15:12:01;25.40;99.90
5086;DHT22;4715;51.660;7.082;2023-07-09T15:14:25;25.40;99.90
5086;DHT22;4715;51.660;7.082;2023-07-09T15:16:48;25.40;99.90
5086;DHT22;4715;51.660;7.082;2023-07-09T15:19:13;25.40;99.90
5086;DHT22;4715;51.660;7.082;2023-07-09T15:21:36;25.30;99.90
5086;DHT22;4715;51.660;7.082;2023-07-09T15:23:57;25.20;99.90
5086;DHT22;4715;51.660;7.082;2023-07-09T15:26:19;25.10;99.90
5086;DHT22;4715;51.660;7.082;2023-07-09T15:28:42;24.90;99.90
5086;DHT22;4715;51.660;7.082;2023-07-09T15:31:03;24.50;99.90
5086;DHT22;4715;51.660;7.082;2023-07-09T15:33:28;24.20;99.90
5086;DHT22;4715;51.660;7.082;2023-07-09T15:35:52;24.10;99.90
5086;DHT22;4715;51.660;7.082;2023-07-09T15:38:25;24.00;99.90
5086;DHT22;4715;51.660;7.082;2023-07-09T15:40:49;24.00;99.90
5086;DHT22;4715;51.660;7.082;2023-07-09T15:43:11;24.00;99.90
5086;DHT22;4715;51.660;7.082;2023-07-09T15:45:41;24.00;99.90